METAR AND TAF INFORMATION
METAR FOR KLAS
KLAS 270556Z 19011G20KT 10SM FEW150 SCT200 BKN250 16/03 A2975 RMK AO2 PK WND 23032/0521 SLP061 T01560028 10206 20156 53004
KLAS 270456Z 22017G28KT 10SM FEW150 BKN200 BKN250 16/02 A2973 RMK AO2 PK WND 23032/0402 SLP057 T01610022
KLAS 270356Z 22019G31KT 10SM BKN200 BKN220 17/01 A2972 RMK AO2 PK WND 19031/0348 SLP053 T01720011
KLAS 270539Z 2706/2812 23018G30KT P6SM FEW150 BKN200 BKN250
FM271000 25010KT P6SM FEW150
FM271600 35008KT P6SM FEW100
FM271900 02012G22KT P6SM FEW100
FM280000 03009KT P6SM SKC
FM281000 23006KT P6SM SKC

 AIRPORT MAP

 RUNWAY INFORMATION
Runway 01L Runway length 8985 ft Runway width 150 ft
Runway elevation 2176 ft Runway displaced threshold 584 ft Runway heading 25
Runway 19R Runway length 8985 ft Runway width 150 ft
Runway elevation 2083 ft Runway displaced threshold 0 ft Runway heading 205
Runway 01R Runway length 9775 ft Runway width 150 ft
Runway elevation 2170 ft Runway displaced threshold 491 ft Runway heading 25
Runway 19L Runway length 9775 ft Runway width 150 ft
Runway elevation 2080 ft Runway displaced threshold 878 ft Runway heading 205
Runway 07L Runway length 14510 ft Runway width 150 ft
Runway elevation 2155 ft Runway displaced threshold 2139 ft Runway heading 90
Runway 25R Runway length 14510 ft Runway width 150 ft
Runway elevation 2044 ft Runway displaced threshold 1397 ft Runway heading 270
Runway 07R Runway length 10526 ft Runway width 150 ft
Runway elevation 2157 ft Runway displaced threshold 0 ft Runway heading 90
Runway 25L Runway length 10526 ft Runway width 150 ft
Runway elevation 2048 ft Runway displaced threshold 0 ft Runway heading 270

 AIRPORT FREQUENCIES
Type APP Name LAS VEGAS Frequency 125.025 MHZ
Type ATIS Name ATIS Frequency 132.4 MHZ
Type CLD Name CLNC DEL Frequency 118 MHZ
Type DEP Name LAS VEGAS Frequency 125.02 MHZ
Type GND Name GND Frequency 121.1 MHZ
Type UNIC Name UNICOM Frequency 122.95 MHZ
Type TWR Name Frequency 119.9 MHZ

 AIRPORT NEAR NAVIGATION AIDS
Type VORTAC Name Las Vegas Frequency 116900 KHZ

-